createdAt,value
2023-01-15T00:04:33.785Z,12.78
2023-01-15T00:09:35.250Z,12.88
2023-01-15T00:14:36.782Z,12.87
2023-01-15T00:19:38.323Z,12.81
2023-01-15T00:24:39.887Z,12.84
2023-01-15T00:29:41.357Z,12.77
2023-01-15T00:34:42.825Z,12.69
2023-01-15T00:39:44.323Z,12.74
2023-01-15T00:44:45.845Z,12.84
2023-01-15T00:49:47.370Z,12.90
2023-01-15T00:54:48.913Z,12.95
2023-01-15T00:59:50.517Z,12.91
2023-01-15T01:04:53.161Z,13.06
2023-01-15T01:09:54.621Z,12.97
2023-01-15T01:14:56.107Z,12.97
2023-01-15T01:19:58.348Z,12.87
2023-01-15T01:24:59.829Z,12.87
2023-01-15T01:30:01.670Z,12.73
2023-01-15T01:35:03.298Z,12.53
2023-01-15T01:40:05.706Z,12.39
2023-01-15T01:45:18.233Z,12.36
2023-01-15T01:50:21.118Z,12.35
2023-01-15T01:55:24.949Z,12.13
2023-01-15T02:00:29.907Z,12.39
2023-01-15T02:05:33.911Z,12.56
2023-01-15T02:10:35.513Z,12.28
2023-01-15T02:15:43.319Z,12.45
2023-01-15T02:20:53.719Z,12.39
2023-01-15T02:26:06.990Z,12.31
2023-01-15T02:31:24.626Z,12.35
2023-01-15T02:36:31.541Z,12.38
2023-01-15T02:41:40.412Z,12.33
2023-01-15T02:46:45.061Z,12.50
2023-01-15T02:51:54.640Z,12.40
2023-01-15T02:56:59.589Z,12.31
2023-01-15T03:02:05.562Z,12.45
2023-01-15T03:07:46.915Z,12.35
2023-01-15T03:13:01.544Z,12.27
2023-01-15T03:18:10.897Z,12.33
2023-01-15T03:23:16.217Z,12.48
2023-01-15T03:28:24.017Z,12.47
2023-01-15T03:33:25.657Z,12.49
2023-01-15T03:38:33.011Z,12.59
2023-01-15T03:43:46.226Z,12.53
2023-01-15T03:49:03.983Z,12.50
2023-01-15T03:54:15.857Z,12.58
2023-01-15T03:59:28.096Z,12.54
2023-01-15T04:04:36.370Z,12.55
2023-01-15T04:09:40.622Z,12.59
2023-01-15T04:14:45.274Z,12.61
2023-01-15T04:19:52.115Z,12.77
2023-01-15T04:24:53.765Z,12.85
2023-01-15T04:29:55.345Z,12.96
2023-01-15T04:34:56.859Z,12.94
2023-01-15T04:39:58.406Z,12.77
2023-01-15T04:44:59.983Z,12.89
2023-01-15T04:50:01.571Z,13.07
2023-01-15T04:55:04.609Z,13.04
2023-01-15T05:00:06.847Z,12.39
2023-01-15T05:05:08.705Z,12.26
2023-01-15T05:10:10.786Z,12.41
2023-01-15T05:15:12.293Z,12.15
2023-01-15T05:20:13.877Z,11.98
2023-01-15T05:25:15.763Z,12.06
2023-01-15T05:30:17.617Z,12.11
2023-01-15T05:35:19.197Z,12.65
2023-01-15T05:40:20.713Z,12.82
2023-01-15T05:45:22.226Z,12.57
2023-01-15T05:50:23.754Z,12.46
2023-01-15T05:55:25.263Z,12.53
2023-01-15T06:00:28.254Z,12.74
2023-01-15T06:05:31.191Z,12.41
2023-01-15T06:10:32.692Z,12.65
2023-01-15T06:15:34.218Z,12.75
2023-01-15T06:20:40.563Z,12.97
2023-01-15T06:25:42.010Z,12.71
2023-01-15T06:30:43.455Z,12.47
2023-01-15T06:35:44.886Z,12.97
2023-01-15T06:40:46.467Z,13.35
2023-01-15T06:45:48.090Z,13.68
2023-01-15T06:50:49.591Z,14.00
2023-01-15T06:55:51.439Z,14.20
2023-01-15T07:00:52.992Z,14.05
2023-01-15T07:05:54.515Z,14.13
2023-01-15T07:10:56.053Z,14.32
2023-01-15T07:16:01.982Z,14.38
2023-01-15T07:21:03.555Z,14.49
2023-01-15T07:26:05.189Z,14.56
2023-01-15T07:31:06.785Z,14.88
2023-01-15T07:36:08.610Z,14.83
2023-01-15T07:41:10.069Z,14.68
2023-01-15T07:46:11.580Z,15.20
2023-01-15T07:51:13.091Z,14.47
2023-01-15T07:56:15.111Z,14.71
2023-01-15T08:01:16.716Z,14.41
2023-01-15T08:06:18.337Z,14.77
2023-01-15T08:11:19.885Z,14.80
2023-01-15T08:16:21.474Z,15.36
2023-01-15T08:21:22.966Z,15.24
2023-01-15T08:26:24.433Z,15.63
2023-01-15T08:31:25.914Z,15.49
2023-01-15T08:36:27.497Z,15.83
2023-01-15T08:41:28.999Z,14.80
2023-01-15T08:46:30.435Z,15.45
2023-01-15T08:51:31.883Z,15.17
2023-01-15T08:56:33.385Z,14.78
2023-01-15T09:01:35.416Z,14.61
2023-01-15T09:06:36.908Z,14.93
2023-01-15T09:11:38.936Z,14.12
2023-01-15T09:16:40.710Z,13.20
2023-01-15T09:21:42.239Z,12.70
2023-01-15T09:26:43.748Z,12.81
2023-01-15T09:31:45.274Z,12.38
2023-01-15T09:36:47.318Z,12.51
2023-01-15T09:42:11.840Z,12.54
2023-01-15T09:47:55.422Z,12.35
2023-01-15T09:53:13.011Z,12.24
2023-01-15T09:58:19.431Z,12.04
2023-01-15T10:03:37.458Z,12.03
2023-01-15T10:08:46.362Z,12.34
2023-01-15T10:13:49.739Z,12.50
2023-01-15T10:18:52.101Z,11.76
2023-01-15T10:24:15.184Z,11.17
2023-01-15T10:29:31.428Z,10.97
2023-01-15T10:34:38.805Z,10.68
2023-01-15T10:39:46.031Z,10.41
2023-01-15T10:45:14.681Z,10.54
2023-01-15T10:50:19.428Z,10.61
2023-01-15T10:55:29.104Z,10.27
2023-01-15T11:00:31.030Z,10.00
2023-01-15T11:05:33.635Z,9.96
2023-01-15T11:10:35.150Z,9.91
2023-01-15T11:15:37.261Z,9.90
2023-01-15T11:20:47.709Z,9.77
2023-01-15T11:25:55.420Z,9.70
2023-01-15T11:30:56.926Z,9.86
2023-01-15T11:36:01.847Z,9.58
2023-01-15T11:41:03.391Z,9.40
2023-01-15T11:46:04.985Z,9.31
2023-01-15T11:51:09.301Z,9.33
2023-01-15T11:56:15.169Z,9.47
2023-01-15T12:01:35.872Z,9.23
2023-01-15T12:06:40.806Z,8.70
2023-01-15T12:11:47.923Z,9.00
2023-01-15T12:17:01.204Z,8.96
2023-01-15T12:22:13.222Z,8.63
2023-01-15T12:27:31.012Z,8.84
2023-01-15T12:32:43.303Z,8.78
2023-01-15T12:37:50.654Z,8.64
2023-01-15T12:42:54.142Z,8.62
2023-01-15T12:48:12.359Z,8.68
2023-01-15T12:53:22.778Z,8.74
2023-01-15T12:58:45.218Z,8.52
2023-01-15T13:04:13.036Z,8.25
2023-01-15T13:09:28.506Z,8.23
2023-01-15T13:14:30.288Z,8.62
2023-01-15T13:19:44.723Z,8.58
2023-01-15T13:25:01.329Z,8.63
2023-01-15T13:30:22.034Z,8.65
2023-01-15T13:35:37.510Z,8.31
2023-01-15T13:40:43.087Z,8.26
2023-01-15T13:45:50.499Z,8.17
2023-01-15T13:50:54.972Z,8.34
2023-01-15T13:56:02.162Z,8.19
2023-01-15T14:01:33.181Z,8.37
2023-01-15T14:06:37.198Z,8.10
2023-01-15T14:11:57.658Z,8.49
2023-01-15T14:17:29.359Z,8.74
2023-01-15T14:22:49.139Z,8.24
2023-01-15T14:28:07.449Z,8.28
2023-01-15T14:33:50.327Z,8.49
2023-01-15T14:38:57.052Z,8.50
2023-01-15T14:44:01.291Z,8.86
2023-01-15T14:49:02.981Z,8.66
2023-01-15T14:54:10.113Z,8.62
2023-01-15T14:59:25.837Z,8.26
2023-01-15T15:04:36.202Z,8.35
2023-01-15T15:09:45.500Z,8.41
2023-01-15T15:15:11.989Z,8.29
2023-01-15T15:20:48.772Z,8.15
2023-01-15T15:26:02.387Z,8.28
2023-01-15T15:31:04.009Z,8.70
2023-01-15T15:36:07.590Z,8.42
2023-01-15T15:41:12.453Z,8.44
2023-01-15T15:46:29.184Z,8.47
2023-01-15T15:51:35.135Z,8.32
2023-01-15T15:56:37.650Z,8.27
2023-01-15T16:01:39.635Z,8.42
2023-01-15T16:06:41.232Z,8.65
2023-01-15T16:11:42.819Z,8.51
2023-01-15T16:16:45.006Z,8.69
2023-01-15T16:21:46.850Z,8.57
2023-01-15T16:26:56.116Z,8.61
2023-01-15T16:31:58.944Z,8.75
2023-01-15T16:37:02.128Z,8.74
2023-01-15T16:42:03.944Z,8.43
2023-01-15T16:47:06.425Z,8.47
2023-01-15T16:52:36.717Z,8.36
2023-01-15T16:57:38.246Z,8.20
2023-01-15T17:02:46.528Z,7.99
2023-01-15T17:07:49.830Z,8.01
2023-01-15T17:12:52.257Z,7.38
2023-01-15T17:17:55.392Z,7.61
2023-01-15T17:22:56.977Z,7.81
2023-01-15T17:27:59.925Z,7.66
2023-01-15T17:33:03.887Z,7.52
2023-01-15T17:38:05.765Z,7.29
2023-01-15T17:43:07.367Z,7.54
2023-01-15T17:48:09.615Z,7.80
2023-01-15T17:53:11.069Z,8.04
2023-01-15T17:58:13.226Z,7.64
2023-01-15T18:03:18.906Z,7.51
2023-01-15T18:08:20.399Z,7.36
2023-01-15T18:13:21.908Z,7.52
2023-01-15T18:18:23.410Z,7.45
2023-01-15T18:23:24.938Z,7.50
2023-01-15T18:28:26.385Z,7.43
2023-01-15T18:33:27.916Z,7.32
2023-01-15T18:38:29.371Z,7.22
2023-01-15T18:43:30.851Z,7.26
2023-01-15T18:48:32.666Z,7.36
2023-01-15T18:53:34.115Z,7.41
2023-01-15T18:58:35.640Z,7.59
2023-01-15T19:03:37.113Z,7.82
2023-01-15T19:08:38.607Z,7.80
2023-01-15T19:13:40.104Z,7.73
2023-01-15T19:18:41.538Z,7.96
2023-01-15T19:23:43.051Z,7.85
2023-01-15T19:28:44.561Z,7.91
2023-01-15T19:33:46.225Z,8.07
2023-01-15T19:38:47.764Z,8.02
2023-01-15T19:43:49.228Z,7.38
2023-01-15T19:48:50.899Z,7.25
2023-01-15T19:53:52.390Z,7.35
2023-01-15T19:58:53.839Z,7.40
2023-01-15T20:03:55.296Z,7.24
2023-01-15T20:08:56.794Z,7.26
2023-01-15T20:13:58.304Z,7.06
2023-01-15T20:18:59.819Z,6.64
2023-01-15T20:24:01.381Z,6.54
2023-01-15T20:29:02.850Z,6.39
2023-01-15T20:34:04.369Z,6.42
2023-01-15T20:39:05.844Z,6.64
2023-01-15T20:44:07.382Z,6.64
2023-01-15T20:49:08.840Z,6.64
2023-01-15T20:54:10.332Z,7.14
2023-01-15T20:59:11.834Z,7.37
2023-01-15T21:04:13.400Z,7.25
2023-01-15T21:09:14.863Z,7.30
2023-01-15T21:14:16.347Z,7.30
2023-01-15T21:19:18.451Z,7.25
2023-01-15T21:24:20.039Z,7.56
2023-01-15T21:29:21.506Z,7.60
2023-01-15T21:34:23.245Z,7.70
2023-01-15T21:39:24.822Z,7.93
2023-01-15T21:44:26.482Z,8.02
2023-01-15T21:49:28.214Z,7.62
2023-01-15T21:54:31.248Z,7.56
2023-01-15T21:59:32.802Z,7.70
2023-01-15T22:04:35.502Z,7.64
2023-01-15T22:09:37.232Z,7.64
2023-01-15T22:14:38.779Z,7.17
2023-01-15T22:19:40.386Z,6.68
2023-01-15T22:24:41.894Z,6.84
2023-01-15T22:29:43.448Z,6.78
2023-01-15T22:34:47.392Z,6.70
2023-01-15T22:39:48.897Z,6.70
2023-01-15T22:44:51.248Z,6.53
2023-01-15T22:49:52.702Z,6.41
2023-01-15T22:54:54.264Z,6.64
2023-01-15T22:59:55.782Z,6.57
2023-01-15T23:04:57.287Z,6.79
2023-01-15T23:09:58.777Z,7.13
2023-01-15T23:15:00.215Z,7.20
2023-01-15T23:20:01.733Z,7.09
2023-01-15T23:25:03.743Z,6.94
2023-01-15T23:30:05.749Z,6.80
2023-01-15T23:35:08.379Z,6.52
2023-01-15T23:40:10.410Z,6.44
2023-01-15T23:45:11.925Z,6.92
2023-01-15T23:50:13.388Z,6.80
2023-01-15T23:55:14.922Z,7.07
